createdAt,value
2022-10-28T00:00:45.234Z,98.54
2022-10-28T00:01:47.570Z,98.60
2022-10-28T00:02:49.998Z,98.59
2022-10-28T00:03:57.612Z,98.48
2022-10-28T00:04:59.445Z,98.63
2022-10-28T00:06:03.694Z,98.96
2022-10-28T00:07:05.679Z,98.96
2022-10-28T00:08:08.289Z,98.59
2022-10-28T00:09:12.202Z,98.69
2022-10-28T00:10:14.025Z,98.69
2022-10-28T00:12:34.743Z,98.25
2022-10-28T00:13:37.271Z,98.25
2022-10-28T00:14:39.247Z,98.24
2022-10-28T00:15:40.992Z,98.20
2022-10-28T00:16:42.745Z,98.27
2022-10-28T00:17:45.014Z,98.27
2022-10-28T00:18:47.724Z,98.42
2022-10-28T00:19:49.440Z,98.46
2022-10-28T00:20:51.984Z,98.80
2022-10-28T00:21:53.912Z,98.93
2022-10-28T00:22:55.759Z,99.13
2022-10-28T00:23:58.303Z,99.18
2022-10-28T00:25:00.209Z,99.21
2022-10-28T00:26:07.657Z,99.25
2022-10-28T00:27:09.580Z,99.18
2022-10-28T00:28:11.349Z,98.94
2022-10-28T00:29:16.185Z,98.84
2022-10-28T00:30:18.455Z,98.81
2022-10-28T00:31:22.245Z,98.87
2022-10-28T00:32:24.153Z,98.58
2022-10-28T00:33:27.131Z,98.58
2022-10-28T00:34:29.085Z,98.49
2022-10-28T00:35:30.850Z,98.64
2022-10-28T00:36:35.404Z,98.53
2022-10-28T00:37:37.378Z,98.53
2022-10-28T00:38:40.922Z,98.70
2022-10-28T00:39:42.875Z,98.50
2022-10-28T00:40:44.680Z,98.45
2022-10-28T00:41:52.354Z,98.75
2022-10-28T00:42:54.842Z,98.66
2022-10-28T00:44:00.219Z,98.49
2022-10-28T00:45:03.496Z,98.32
2022-10-28T00:46:21.225Z,98.29
2022-10-28T00:47:30.808Z,98.13
2022-10-28T00:48:33.232Z,98.27
2022-10-28T00:49:35.167Z,98.19
2022-10-28T00:50:46.711Z,98.20
2022-10-28T00:53:11.233Z,98.33
2022-10-28T00:54:15.785Z,98.22
2022-10-28T00:55:20.448Z,98.05
2022-10-28T00:56:29.137Z,98.05
2022-10-28T00:57:36.910Z,98.18
2022-10-28T00:58:39.288Z,98.26
2022-10-28T00:59:44.748Z,98.05
2022-10-28T01:00:46.620Z,98.03
2022-10-28T01:01:48.726Z,97.74
2022-10-28T01:02:51.415Z,97.59
2022-10-28T01:03:55.351Z,97.69
2022-10-28T01:04:58.390Z,97.66
2022-10-28T01:06:00.839Z,97.64
2022-10-28T01:07:02.880Z,97.52
2022-10-28T01:08:05.426Z,97.53
2022-10-28T01:09:07.782Z,97.49
2022-10-28T01:10:11.709Z,97.54
2022-10-28T01:11:34.345Z,97.65
2022-10-28T01:14:12.588Z,98.31
2022-10-28T01:15:47.785Z,98.22
2022-10-28T01:17:00.462Z,98.10
2022-10-28T01:18:17.584Z,98.20
2022-10-28T01:19:23.166Z,98.21
2022-10-28T01:20:28.797Z,98.19
2022-10-28T01:21:40.278Z,98.35
2022-10-28T01:23:02.281Z,98.46
2022-10-28T01:24:13.794Z,98.34
2022-10-28T01:25:25.157Z,97.84
2022-10-28T01:26:33.711Z,97.96
2022-10-28T01:27:39.637Z,98.01
2022-10-28T01:29:18.602Z,97.85
2022-10-28T01:30:28.222Z,97.61
2022-10-28T01:31:33.727Z,97.49
2022-10-28T01:32:52.420Z,97.57
2022-10-28T01:34:13.257Z,97.45
2022-10-28T01:36:54.768Z,97.30
2022-10-28T01:38:16.053Z,97.40
2022-10-28T01:39:30.351Z,96.61
2022-10-28T01:40:48.137Z,96.66
2022-10-28T01:42:16.117Z,96.69
2022-10-28T01:43:31.086Z,96.48
2022-10-28T01:44:42.093Z,96.60
2022-10-28T01:45:51.166Z,96.58
2022-10-28T01:47:13.948Z,96.74
2022-10-28T01:49:32.514Z,97.06
2022-10-28T01:50:40.968Z,97.04
2022-10-28T01:51:46.458Z,97.21
2022-10-28T01:52:51.865Z,97.29
2022-10-28T01:53:57.636Z,97.29
2022-10-28T01:55:21.410Z,97.35
2022-10-28T01:56:27.089Z,97.61
2022-10-28T01:57:31.640Z,97.55
2022-10-28T01:58:38.177Z,97.46
2022-10-28T01:59:42.625Z,97.22
2022-10-28T02:00:47.129Z,97.04
2022-10-28T02:01:49.542Z,97.14
2022-10-28T02:02:52.986Z,97.13
2022-10-28T02:03:55.948Z,96.88
2022-10-28T02:05:05.457Z,96.73
2022-10-28T02:06:11.203Z,96.76
2022-10-28T02:07:14.431Z,96.78
2022-10-28T02:08:21.001Z,96.70
2022-10-28T02:09:45.199Z,96.71
2022-10-28T02:10:56.817Z,96.92
2022-10-28T02:12:25.473Z,97.09
2022-10-28T02:13:49.463Z,97.04
2022-10-28T02:15:19.315Z,97.18
2022-10-28T02:16:46.169Z,97.19
2022-10-28T02:17:52.243Z,97.20
2022-10-28T02:19:01.304Z,97.43
2022-10-28T02:20:15.597Z,97.37
2022-10-28T02:21:21.120Z,97.55
2022-10-28T02:22:32.390Z,97.55
2022-10-28T02:23:47.078Z,97.56
2022-10-28T02:25:11.841Z,97.54
2022-10-28T02:26:20.354Z,97.46
2022-10-28T02:27:32.463Z,97.28
2022-10-28T02:28:57.521Z,97.09
2022-10-28T02:30:15.097Z,96.99
2022-10-28T02:32:41.147Z,97.38
2022-10-28T02:33:46.009Z,97.37
2022-10-28T02:34:52.047Z,97.31
2022-10-28T02:35:57.559Z,97.45
2022-10-28T02:37:03.437Z,97.08
2022-10-28T02:38:09.131Z,97.11
2022-10-28T02:39:11.587Z,97.15
2022-10-28T02:40:17.252Z,96.42
2022-10-28T02:41:25.802Z,96.34
2022-10-28T02:42:31.897Z,96.33
2022-10-28T02:43:36.964Z,95.93
2022-10-28T02:44:42.514Z,96.00
2022-10-28T02:45:48.074Z,95.92
2022-10-28T02:46:52.789Z,95.86
2022-10-28T02:47:58.321Z,95.57
2022-10-28T02:49:04.302Z,95.57
2022-10-28T02:50:10.164Z,95.55
2022-10-28T02:51:18.740Z,95.35
2022-10-28T02:52:24.268Z,95.25
2022-10-28T02:53:32.796Z,95.16
2022-10-28T02:54:44.451Z,94.96
2022-10-28T02:55:49.966Z,95.15
2022-10-28T02:57:04.460Z,95.12
2022-10-28T02:58:07.404Z,95.21
2022-10-28T02:59:11.328Z,95.73
2022-10-28T03:00:18.126Z,96.02
2022-10-28T03:01:20.178Z,96.08
2022-10-28T03:02:23.429Z,96.08
2022-10-28T03:03:25.871Z,95.95
2022-10-28T03:04:27.554Z,95.74
2022-10-28T03:05:29.652Z,96.03
2022-10-28T03:06:31.664Z,96.18
2022-10-28T03:07:33.677Z,96.22
2022-10-28T03:08:35.480Z,96.62
2022-10-28T03:09:37.400Z,96.57
2022-10-28T03:10:39.374Z,96.52
2022-10-28T03:11:41.252Z,96.51
2022-10-28T03:12:43.143Z,96.46
2022-10-28T03:13:45.477Z,96.34
2022-10-28T03:14:47.181Z,96.33
2022-10-28T03:15:48.823Z,95.88
2022-10-28T03:16:51.671Z,96.07
2022-10-28T03:17:53.913Z,96.11
2022-10-28T03:18:56.842Z,96.22
2022-10-28T03:19:59.599Z,95.95
2022-10-28T03:21:02.651Z,95.95
2022-10-28T03:22:04.878Z,96.22
2022-10-28T03:23:07.747Z,96.15
2022-10-28T03:24:09.777Z,96.22
2022-10-28T03:25:11.702Z,96.04
2022-10-28T03:26:13.724Z,96.08
2022-10-28T03:27:15.475Z,96.08
2022-10-28T03:28:17.327Z,96.02
2022-10-28T03:29:19.068Z,95.76
2022-10-28T03:30:21.480Z,95.78
2022-10-28T03:31:23.410Z,95.89
2022-10-28T03:32:25.385Z,95.82
2022-10-28T03:33:27.297Z,96.02
2022-10-28T03:34:29.250Z,96.26
2022-10-28T03:35:31.261Z,96.21
2022-10-28T03:36:33.387Z,96.06
2022-10-28T03:37:35.790Z,95.96
2022-10-28T03:38:37.693Z,95.86
2022-10-28T03:39:39.636Z,95.78
2022-10-28T03:40:41.453Z,95.87
2022-10-28T03:41:43.074Z,95.67
2022-10-28T03:42:44.734Z,95.42
2022-10-28T03:43:46.835Z,95.51
2022-10-28T03:44:48.538Z,95.19
2022-10-28T03:45:50.494Z,95.20
2022-10-28T03:46:52.649Z,95.28
2022-10-28T03:47:55.051Z,95.11
2022-10-28T03:48:57.029Z,95.32
2022-10-28T03:49:58.809Z,94.67
2022-10-28T03:51:00.914Z,94.63
2022-10-28T03:52:03.037Z,94.21
2022-10-28T03:53:05.389Z,93.91
2022-10-28T03:54:07.174Z,93.81
2022-10-28T03:55:09.047Z,94.12
2022-10-28T03:56:12.012Z,94.30
2022-10-28T03:57:14.129Z,94.21
2022-10-28T03:58:15.830Z,94.22
2022-10-28T03:59:20.274Z,94.51
2022-10-28T04:00:22.635Z,94.79
2022-10-28T04:01:24.439Z,94.30
2022-10-28T04:02:27.204Z,93.94
2022-10-28T04:03:30.029Z,93.94
2022-10-28T04:04:32.030Z,94.13
2022-10-28T04:05:33.958Z,94.28
2022-10-28T04:06:36.052Z,94.39
2022-10-28T04:07:37.825Z,94.39
2022-10-28T04:08:40.168Z,94.51
2022-10-28T04:09:42.853Z,94.70
2022-10-28T04:10:47.712Z,94.93
2022-10-28T04:11:50.966Z,94.65
2022-10-28T04:12:53.473Z,93.92
2022-10-28T04:13:55.582Z,93.32
2022-10-28T04:14:57.499Z,92.04
2022-10-28T04:15:59.391Z,91.66
2022-10-28T04:17:01.386Z,91.90
2022-10-28T04:18:04.878Z,91.95
2022-10-28T04:19:07.369Z,90.96
2022-10-28T04:20:10.550Z,90.97
2022-10-28T04:21:12.995Z,91.03
2022-10-28T04:22:15.976Z,91.11
2022-10-28T04:23:17.865Z,91.24
2022-10-28T04:24:19.610Z,91.18
2022-10-28T04:25:22.456Z,91.07
2022-10-28T04:26:25.518Z,91.27
2022-10-28T04:27:27.378Z,91.45
2022-10-28T04:28:29.243Z,91.18
2022-10-28T04:29:31.502Z,91.18
2022-10-28T04:30:33.538Z,90.79
2022-10-28T04:31:35.363Z,90.77
2022-10-28T04:32:37.246Z,91.47
2022-10-28T04:33:39.125Z,91.60
2022-10-28T04:34:41.191Z,91.76
2022-10-28T04:35:44.501Z,91.37
2022-10-28T04:36:46.577Z,91.47
2022-10-28T04:37:48.729Z,91.06
2022-10-28T04:38:51.607Z,90.80
2022-10-28T04:39:53.597Z,91.04
2022-10-28T04:40:56.740Z,91.06
2022-10-28T04:41:58.744Z,91.07
2022-10-28T04:43:00.675Z,91.40
2022-10-28T04:44:02.472Z,91.58
2022-10-28T04:45:05.622Z,91.58
2022-10-28T04:46:08.357Z,91.77
2022-10-28T04:47:10.136Z,92.12
2022-10-28T04:48:11.830Z,92.34
2022-10-28T04:49:13.563Z,92.26
2022-10-28T04:50:17.386Z,91.74
2022-10-28T04:51:19.379Z,91.60
2022-10-28T04:52:21.690Z,91.42
2022-10-28T04:53:23.829Z,91.55
2022-10-28T04:54:25.763Z,92.21
2022-10-28T04:55:28.090Z,92.55
2022-10-28T04:56:30.280Z,92.58
2022-10-28T04:57:32.179Z,92.75
2022-10-28T04:58:34.058Z,92.92
2022-10-28T04:59:36.077Z,92.85
2022-10-28T05:00:39.143Z,92.08
2022-10-28T05:01:41.307Z,91.38
2022-10-28T05:02:46.032Z,90.99
2022-10-28T05:03:47.289Z,90.72
2022-10-28T05:04:49.314Z,90.99
2022-10-28T05:05:51.089Z,91.06
2022-10-28T05:06:53.331Z,91.06
2022-10-28T05:07:56.253Z,90.99
2022-10-28T05:08:58.397Z,91.10
2022-10-28T05:10:00.581Z,91.50
2022-10-28T05:11:02.603Z,91.92
2022-10-28T05:12:05.633Z,92.11
2022-10-28T05:13:07.697Z,92.02
2022-10-28T05:14:10.610Z,92.08
2022-10-28T05:15:14.011Z,92.22
2022-10-28T05:16:15.973Z,92.12
2022-10-28T05:17:17.709Z,91.88
2022-10-28T05:18:19.453Z,91.92
2022-10-28T05:19:22.132Z,92.12
2022-10-28T05:20:24.082Z,92.03
2022-10-28T05:21:26.887Z,91.71
2022-10-28T05:22:28.750Z,90.99
2022-10-28T05:23:31.143Z,90.59
2022-10-28T05:24:33.143Z,90.74
2022-10-28T05:25:35.565Z,90.88
2022-10-28T05:26:38.419Z,90.90
2022-10-28T05:27:40.446Z,90.83
2022-10-28T05:28:42.616Z,90.13
2022-10-28T05:29:45.376Z,90.58
2022-10-28T05:30:48.025Z,91.15
2022-10-28T05:31:50.221Z,91.46
2022-10-28T05:33:02.260Z,91.80
2022-10-28T05:34:04.590Z,92.30
2022-10-28T05:35:07.576Z,92.47
2022-10-28T05:36:10.360Z,92.46
2022-10-28T05:37:14.601Z,92.16
2022-10-28T05:38:16.501Z,91.93
2022-10-28T05:39:18.173Z,91.65
2022-10-28T05:40:20.370Z,91.74
2022-10-28T05:41:23.392Z,91.78
2022-10-28T05:42:26.766Z,90.94
2022-10-28T05:43:28.643Z,91.03
2022-10-28T05:44:30.574Z,91.40
2022-10-28T05:45:32.880Z,91.40
2022-10-28T05:46:35.034Z,91.40
2022-10-28T05:47:40.083Z,91.34
2022-10-28T05:48:42.727Z,91.55
2022-10-28T05:49:44.540Z,91.16
2022-10-28T05:50:46.484Z,91.17
2022-10-28T05:51:48.409Z,91.33
2022-10-28T05:52:52.607Z,90.99
2022-10-28T05:53:55.172Z,90.75
2022-10-28T05:54:56.967Z,90.67
2022-10-28T05:55:58.843Z,90.21
2022-10-28T05:57:00.906Z,90.25
2022-10-28T05:58:02.920Z,89.65
2022-10-28T05:59:04.647Z,88.93
2022-10-28T06:00:09.395Z,89.17
2022-10-28T06:01:17.339Z,89.07
2022-10-28T06:02:19.423Z,89.85
2022-10-28T06:03:21.245Z,90.17
2022-10-28T06:04:23.437Z,90.24
2022-10-28T06:05:25.250Z,90.35
2022-10-28T06:06:28.443Z,90.24
2022-10-28T06:07:30.473Z,90.24
2022-10-28T06:08:33.476Z,89.90
2022-10-28T06:09:36.205Z,90.25
2022-10-28T06:10:39.283Z,90.40
2022-10-28T06:11:39.611Z,90.55
2022-10-28T06:12:41.463Z,90.66
2022-10-28T06:13:43.273Z,90.51
2022-10-28T06:14:45.148Z,90.23
2022-10-28T06:15:51.741Z,90.25
2022-10-28T06:16:53.833Z,90.53
2022-10-28T06:17:56.789Z,91.13
2022-10-28T06:18:58.818Z,91.03
2022-10-28T06:20:02.453Z,90.81
2022-10-28T06:21:05.430Z,90.82
2022-10-28T06:22:07.331Z,91.12
2022-10-28T06:23:09.185Z,91.37
2022-10-28T06:24:12.131Z,91.47
2022-10-28T06:25:14.906Z,91.50
2022-10-28T06:26:16.903Z,91.42
2022-10-28T06:27:18.845Z,90.33
2022-10-28T06:28:20.594Z,90.24
2022-10-28T06:29:22.735Z,90.18
2022-10-28T06:30:26.271Z,89.62
2022-10-28T06:31:28.726Z,90.23
2022-10-28T06:32:30.527Z,90.45
2022-10-28T06:33:34.590Z,90.57
2022-10-28T06:34:36.572Z,91.07
2022-10-28T06:35:38.396Z,91.05
2022-10-28T06:36:40.610Z,91.12
2022-10-28T06:37:42.462Z,91.23
2022-10-28T06:38:44.384Z,91.33
2022-10-28T06:39:46.128Z,91.59
2022-10-28T06:40:50.263Z,90.91
2022-10-28T06:41:51.819Z,91.14
2022-10-28T06:43:02.794Z,91.46
2022-10-28T06:44:05.699Z,91.55
2022-10-28T06:45:07.892Z,91.11
2022-10-28T06:46:09.934Z,90.99
2022-10-28T06:47:13.240Z,90.85
2022-10-28T06:48:15.243Z,90.60
2022-10-28T06:49:16.903Z,90.35
2022-10-28T06:50:18.722Z,89.80
2022-10-28T06:51:23.444Z,89.80
2022-10-28T06:52:25.555Z,90.34
2022-10-28T06:53:27.572Z,90.37
2022-10-28T06:54:29.599Z,90.17
2022-10-28T06:55:31.570Z,89.71
2022-10-28T06:56:34.741Z,89.69
2022-10-28T06:57:36.607Z,89.60
2022-10-28T06:58:38.431Z,89.46
2022-10-28T06:59:40.207Z,89.37
2022-10-28T07:00:41.966Z,89.15
2022-10-28T07:01:44.545Z,89.61
2022-10-28T07:02:54.002Z,90.06
2022-10-28T07:03:56.171Z,90.22
2022-10-28T07:04:58.215Z,90.28
2022-10-28T07:06:00.886Z,90.26
2022-10-28T07:07:03.782Z,90.22
2022-10-28T07:08:05.920Z,90.11
2022-10-28T07:09:10.015Z,89.70
2022-10-28T07:10:13.225Z,89.69
2022-10-28T07:11:15.667Z,89.54
2022-10-28T07:13:21.782Z,89.21
2022-10-28T07:14:23.810Z,88.21
2022-10-28T07:15:25.463Z,87.70
2022-10-28T07:16:27.928Z,87.70
2022-10-28T07:17:29.744Z,87.67
2022-10-28T07:18:31.778Z,87.30
2022-10-28T07:19:34.051Z,87.16
2022-10-28T07:20:36.313Z,87.76
2022-10-28T07:21:38.151Z,87.29
2022-10-28T07:22:40.461Z,87.36
2022-10-28T07:23:42.839Z,88.04
2022-10-28T07:24:44.833Z,87.85
2022-10-28T07:26:57.960Z,87.19
2022-10-28T07:28:00.649Z,87.64
2022-10-28T07:29:02.531Z,87.29
2022-10-28T07:30:05.654Z,87.24
2022-10-28T07:31:08.452Z,85.84
2022-10-28T07:32:10.907Z,85.38
2022-10-28T07:33:13.282Z,85.75
2022-10-28T07:34:15.324Z,86.63
2022-10-28T07:35:17.406Z,87.42
2022-10-28T07:36:20.672Z,87.34
2022-10-28T07:37:22.592Z,86.83
2022-10-28T07:38:24.478Z,87.07
2022-10-28T07:39:26.568Z,86.60
2022-10-28T07:40:30.960Z,86.75
2022-10-28T07:41:32.878Z,87.46
2022-10-28T07:42:34.715Z,87.34
2022-10-28T07:43:37.589Z,86.12
2022-10-28T07:44:42.354Z,86.12
2022-10-28T07:45:44.516Z,85.70
2022-10-28T07:46:47.189Z,87.19
2022-10-28T07:47:49.190Z,85.81
2022-10-28T07:48:50.968Z,84.25
2022-10-28T07:49:52.910Z,82.95
2022-10-28T07:50:54.648Z,82.82
2022-10-28T07:51:56.383Z,81.59
2022-10-28T07:53:00.342Z,80.72
2022-10-28T07:54:02.430Z,80.89
2022-10-28T07:55:05.972Z,80.88
2022-10-28T07:56:10.794Z,81.64
2022-10-28T07:57:12.668Z,81.54
2022-10-28T07:58:14.421Z,81.51
2022-10-28T07:59:16.184Z,81.74
2022-10-28T08:00:18.435Z,82.06
2022-10-28T08:01:22.218Z,83.07
2022-10-28T08:02:25.470Z,81.82
2022-10-28T08:03:34.711Z,81.84
2022-10-28T08:04:32.315Z,81.59
2022-10-28T08:05:34.334Z,80.44
2022-10-28T08:06:36.485Z,80.59
2022-10-28T08:07:38.966Z,80.57
2022-10-28T08:08:41.078Z,81.56
2022-10-28T08:09:43.336Z,84.18
2022-10-28T08:10:45.174Z,90.38
2022-10-28T08:11:47.137Z,92.51
2022-10-28T08:12:49.550Z,92.25
2022-10-28T08:13:52.588Z,80.37
2022-10-28T08:14:54.580Z,85.72
2022-10-28T08:15:58.017Z,80.00
2022-10-28T08:17:01.207Z,78.12
2022-10-28T08:18:04.243Z,84.19
2022-10-28T08:19:07.960Z,80.39
2022-10-28T08:20:10.585Z,79.64
2022-10-28T08:21:14.033Z,78.15
2022-10-28T08:22:16.140Z,76.86
2022-10-28T08:23:18.558Z,76.83
2022-10-28T08:24:20.444Z,76.23
2022-10-28T08:25:22.606Z,78.55
2022-10-28T08:26:25.042Z,79.15
2022-10-28T08:27:27.559Z,77.53
2022-10-28T08:28:30.127Z,84.52
2022-10-28T08:29:32.352Z,77.98
2022-10-28T08:30:50.209Z,76.66
2022-10-28T08:31:39.833Z,74.83
2022-10-28T08:32:41.771Z,74.41
2022-10-28T08:33:45.526Z,74.83
2022-10-28T08:34:47.990Z,77.20
2022-10-28T08:35:50.574Z,74.69
2022-10-28T08:36:52.418Z,73.07
2022-10-28T08:37:55.050Z,75.07
2022-10-28T08:38:57.449Z,76.22
2022-10-28T08:40:00.445Z,79.49
2022-10-28T08:41:08.941Z,81.04
2022-10-28T08:42:33.560Z,75.21
2022-10-28T08:44:01.981Z,81.79
2022-10-28T08:45:15.795Z,79.00
2022-10-28T08:46:37.466Z,74.50
2022-10-28T08:48:04.339Z,72.07
2022-10-28T08:49:10.092Z,76.46
2022-10-28T08:50:19.303Z,75.26
2022-10-28T08:51:41.519Z,75.92
2022-10-28T08:53:03.560Z,76.01
2022-10-28T08:54:15.415Z,75.57
2022-10-28T08:55:27.130Z,72.64
2022-10-28T08:56:33.096Z,71.10
2022-10-28T08:57:41.934Z,71.38
2022-10-28T08:58:46.724Z,72.07
2022-10-28T08:59:53.032Z,72.73
2022-10-28T09:00:58.847Z,69.18
2022-10-28T09:02:04.564Z,72.97
2022-10-28T09:03:15.125Z,71.31
2022-10-28T09:04:39.393Z,68.26
2022-10-28T09:05:44.937Z,67.96
2022-10-28T09:06:47.140Z,72.37
2022-10-28T09:07:50.075Z,67.36
2022-10-28T09:08:53.904Z,67.12
2022-10-28T09:09:55.973Z,66.17
2022-10-28T09:11:01.691Z,66.07
2022-10-28T09:14:12.711Z,66.32
2022-10-28T09:15:18.365Z,66.31
2022-10-28T13:16:19.140Z,56.41
2022-10-28T13:17:27.942Z,57.73
2022-10-28T13:18:39.871Z,56.72
2022-10-28T13:20:14.130Z,55.87
2022-10-28T13:21:23.653Z,56.44
2022-10-28T13:22:48.043Z,55.25
2022-10-28T13:24:06.387Z,55.11
2022-10-28T13:25:41.588Z,55.66
2022-10-28T13:26:44.990Z,55.90
2022-10-28T13:27:47.275Z,56.17
2022-10-28T13:28:52.486Z,55.41
2022-10-28T13:29:57.821Z,55.26
2022-10-28T13:31:03.518Z,55.97
2022-10-28T13:32:05.857Z,56.22
2022-10-28T13:33:11.190Z,56.66
2022-10-28T13:34:16.476Z,56.78
2022-10-28T13:35:24.446Z,57.51
2022-10-28T13:36:30.484Z,58.08
2022-10-28T13:37:35.373Z,57.07
2022-10-28T13:38:39.650Z,57.06
2022-10-28T13:39:44.665Z,57.24
2022-10-28T13:40:51.308Z,57.27
2022-10-28T13:42:13.802Z,57.33
2022-10-28T13:43:22.506Z,56.10
2022-10-28T13:44:28.920Z,56.61
2022-10-28T13:45:49.600Z,56.49
2022-10-28T13:48:33.963Z,57.26
2022-10-28T13:49:39.325Z,57.51
2022-10-28T13:50:42.879Z,57.74
2022-10-28T13:51:49.127Z,57.33
2022-10-28T13:53:26.264Z,57.83
2022-10-28T13:54:34.483Z,58.40
2022-10-28T13:55:43.075Z,57.99
2022-10-28T13:56:49.732Z,58.53
2022-10-28T13:58:01.993Z,58.50
2022-10-28T13:59:14.465Z,57.98
2022-10-28T14:00:24.399Z,57.94
2022-10-28T14:01:56.749Z,58.08
2022-10-28T14:03:00.055Z,59.00
2022-10-28T14:04:04.967Z,59.40
2022-10-28T14:05:10.771Z,59.51
2022-10-28T14:06:16.556Z,59.76
2022-10-28T14:07:22.517Z,59.23
2022-10-28T14:08:28.282Z,59.60
2022-10-28T14:09:33.691Z,64.07
2022-10-28T14:10:38.918Z,65.28
2022-10-28T14:11:41.657Z,61.46
2022-10-28T14:12:53.879Z,60.83
2022-10-28T14:14:00.469Z,60.78
2022-10-28T14:16:39.646Z,67.88
2022-10-28T14:17:48.402Z,69.67
2022-10-28T14:19:05.080Z,64.68
2022-10-28T14:20:33.757Z,70.84
2022-10-28T14:22:02.319Z,63.27
2022-10-28T14:23:23.985Z,67.08
2022-10-28T14:24:32.446Z,61.03
2022-10-28T14:25:45.182Z,61.65
2022-10-28T14:27:09.931Z,62.57
2022-10-28T14:28:31.066Z,62.55
2022-10-28T14:29:47.776Z,69.01
2022-10-28T14:31:12.718Z,66.01
2022-10-28T14:32:39.686Z,69.91
2022-10-28T14:33:45.273Z,65.47
2022-10-28T14:34:47.709Z,62.39
2022-10-28T14:35:53.788Z,63.29
2022-10-28T14:37:12.137Z,63.34
2022-10-28T14:38:23.602Z,67.29
2022-10-28T14:39:39.135Z,65.66
2022-10-28T14:40:50.176Z,66.72
2022-10-28T14:42:12.265Z,68.40
2022-10-28T14:43:27.846Z,66.09
2022-10-28T14:45:01.027Z,63.53
2022-10-28T14:46:16.778Z,62.91
2022-10-28T14:47:31.639Z,66.13
2022-10-28T14:48:46.985Z,65.42
2022-10-28T14:50:04.929Z,64.05
2022-10-28T14:51:10.722Z,64.81
2022-10-28T14:52:20.178Z,64.73
2022-10-28T14:53:26.838Z,64.87
2022-10-28T14:54:40.909Z,64.89
2022-10-28T14:55:47.036Z,65.42
2022-10-28T14:56:53.132Z,65.32
2022-10-28T14:58:15.501Z,65.75
2022-10-28T14:59:24.115Z,65.46
2022-10-28T15:00:28.229Z,65.92
2022-10-28T15:01:37.709Z,66.01
2022-10-28T15:02:41.071Z,66.10
2022-10-28T15:04:01.705Z,66.29
2022-10-28T15:05:14.636Z,66.70
2022-10-28T15:06:29.316Z,66.86
2022-10-28T15:07:37.865Z,67.04
2022-10-28T15:08:37.092Z,67.55
2022-10-28T15:09:40.690Z,67.65
2022-10-28T15:10:46.345Z,67.80
2022-10-28T15:11:51.830Z,67.97
2022-10-28T15:12:57.037Z,68.25
2022-10-28T15:14:08.684Z,68.44
2022-10-28T15:15:22.984Z,68.74
2022-10-28T15:16:29.908Z,68.73
2022-10-28T15:17:37.603Z,68.88
2022-10-28T15:18:44.210Z,68.94
2022-10-28T15:19:49.093Z,69.23
2022-10-28T15:21:09.310Z,69.32
2022-10-28T15:22:17.468Z,69.33
2022-10-28T15:23:22.384Z,69.70
2022-10-28T15:24:25.399Z,70.00
2022-10-28T15:25:27.272Z,69.72
2022-10-28T15:26:30.334Z,69.63
2022-10-28T15:27:37.908Z,69.63
2022-10-28T15:28:41.099Z,70.10
2022-10-28T15:29:44.599Z,70.29
2022-10-28T15:30:47.033Z,70.39
2022-10-28T15:32:08.001Z,70.17
2022-10-28T15:33:23.130Z,70.06
2022-10-28T15:34:28.540Z,70.23
2022-10-28T15:35:35.700Z,69.67
2022-10-28T15:36:38.433Z,69.38
2022-10-28T15:37:42.363Z,69.48
2022-10-28T15:39:08.381Z,69.26
2022-10-28T15:40:28.729Z,69.38
2022-10-28T15:41:41.846Z,69.37
2022-10-28T15:42:59.152Z,69.34
2022-10-28T15:44:04.651Z,69.27
2022-10-28T15:45:19.919Z,69.41
2022-10-28T15:46:23.258Z,69.61
2022-10-28T15:47:32.111Z,69.58
2022-10-28T15:48:35.686Z,69.71
2022-10-28T15:49:41.153Z,69.57
2022-10-28T15:50:44.019Z,69.63
2022-10-28T15:52:06.386Z,69.91
2022-10-28T15:53:21.275Z,69.87
2022-10-28T15:54:24.315Z,69.80
2022-10-28T15:55:41.663Z,69.94
2022-10-28T15:56:38.643Z,70.05
2022-10-28T15:57:49.897Z,69.77
2022-10-28T15:59:05.026Z,69.97
2022-10-28T16:00:23.393Z,69.83
2022-10-28T16:01:38.602Z,69.88
2022-10-28T16:02:42.365Z,69.69
2022-10-28T16:03:46.930Z,70.00
2022-10-28T16:04:48.892Z,69.88
2022-10-28T16:05:51.741Z,69.69
2022-10-28T16:06:56.198Z,69.91
2022-10-28T16:08:07.136Z,70.08
2022-10-28T16:09:30.734Z,70.40
2022-10-28T16:10:40.276Z,70.20
2022-10-28T16:11:46.016Z,70.23
2022-10-28T16:12:48.376Z,70.06
2022-10-28T16:13:50.332Z,69.98
2022-10-28T16:14:58.757Z,70.15
2022-10-28T16:16:09.704Z,70.15
2022-10-28T16:17:19.502Z,70.08
2022-10-28T16:18:24.857Z,74.72
2022-10-28T16:19:30.465Z,74.38
2022-10-28T16:20:32.525Z,71.10
2022-10-28T16:21:37.884Z,71.36
2022-10-28T16:22:41.118Z,71.99
2022-10-28T16:23:43.314Z,70.42
2022-10-28T16:24:45.847Z,70.60
2022-10-28T16:25:47.761Z,70.33
2022-10-28T16:26:52.816Z,70.15
2022-10-28T16:27:56.728Z,70.47
2022-10-28T16:28:59.007Z,69.68
2022-10-28T16:30:01.066Z,69.50
2022-10-28T16:31:03.212Z,69.38
2022-10-28T16:32:05.140Z,69.25
2022-10-28T16:33:09.556Z,68.65
2022-10-28T16:34:15.147Z,68.68
2022-10-28T16:35:20.902Z,68.91
2022-10-28T16:36:22.758Z,69.16
2022-10-28T16:37:30.818Z,70.84
2022-10-28T16:38:33.983Z,70.71
2022-10-28T16:39:36.338Z,69.93
2022-10-28T16:40:51.500Z,71.30
2022-10-28T16:41:43.292Z,70.30
2022-10-28T16:42:45.998Z,70.30
2022-10-28T16:43:47.804Z,70.87
2022-10-28T16:44:50.244Z,71.01
2022-10-28T16:45:56.918Z,72.16
2022-10-28T16:46:58.801Z,71.80
2022-10-28T16:48:00.446Z,71.92
2022-10-28T16:49:02.264Z,70.98
2022-10-28T16:50:05.639Z,70.69
2022-10-28T16:51:18.926Z,70.73
2022-10-28T16:52:23.744Z,71.51
2022-10-28T16:53:26.013Z,70.32
2022-10-28T16:54:28.330Z,72.43
2022-10-28T16:55:30.262Z,71.49
2022-10-28T16:56:32.406Z,71.51
2022-10-28T16:57:34.220Z,71.60
2022-10-28T16:58:35.971Z,72.41
2022-10-28T16:59:40.037Z,72.35
2022-10-28T17:00:42.573Z,73.74
2022-10-28T17:01:44.512Z,74.80
2022-10-28T17:02:46.950Z,73.52
2022-10-28T17:03:50.027Z,72.40
2022-10-28T17:04:51.766Z,72.85
2022-10-28T17:05:55.176Z,72.84
2022-10-28T17:06:57.277Z,73.44
2022-10-28T17:07:59.120Z,72.91
2022-10-28T17:09:03.386Z,72.58
2022-10-28T17:10:05.331Z,72.67
2022-10-28T17:11:11.383Z,73.00
2022-10-28T17:12:15.864Z,72.83
2022-10-28T17:13:17.706Z,72.99
2022-10-28T17:14:19.346Z,73.75
2022-10-28T17:15:21.152Z,73.75
2022-10-28T17:16:24.005Z,73.83
2022-10-28T17:17:25.957Z,73.23
2022-10-28T17:18:27.767Z,73.28
2022-10-28T17:19:29.633Z,73.02
2022-10-28T17:20:32.425Z,73.42
2022-10-28T17:21:34.390Z,73.33
2022-10-28T17:22:38.752Z,73.13
2022-10-28T17:23:40.790Z,73.13
2022-10-28T17:24:42.721Z,73.45
2022-10-28T17:25:46.254Z,73.79
2022-10-28T17:26:48.679Z,74.41
2022-10-28T17:27:53.555Z,74.19
2022-10-28T17:29:00.038Z,73.62
2022-10-28T17:30:03.015Z,73.57
2022-10-28T17:31:10.237Z,73.44
2022-10-28T17:32:14.559Z,73.62
2022-10-28T17:33:18.048Z,73.82
2022-10-28T20:06:08.507Z,84.56
2022-10-28T20:07:10.908Z,84.59
2022-10-28T20:08:12.633Z,84.50
2022-10-28T20:09:15.366Z,84.42
2022-10-28T20:10:17.195Z,84.28
2022-10-28T20:11:26.827Z,84.09
2022-10-28T20:12:28.846Z,83.95
2022-10-28T20:13:31.767Z,83.70
2022-10-28T20:14:33.596Z,83.56
2022-10-28T20:15:35.532Z,83.56
2022-10-28T20:16:40.148Z,83.71
2022-10-28T20:17:42.299Z,83.76
2022-10-28T20:18:44.922Z,83.80
2022-10-28T20:19:48.007Z,83.76
2022-10-28T20:20:49.996Z,83.65
2022-10-28T20:21:51.949Z,83.61
2022-10-28T20:22:53.761Z,83.55
2022-10-28T20:23:56.892Z,83.24
2022-10-28T20:24:58.785Z,83.13
2022-10-28T20:26:02.788Z,82.66
2022-10-28T20:27:05.262Z,82.60
2022-10-28T20:28:07.064Z,82.66
2022-10-28T20:29:09.414Z,83.17
2022-10-28T20:30:12.342Z,83.31
2022-10-28T20:31:17.318Z,83.22
2022-10-28T20:32:19.615Z,83.25
2022-10-28T20:33:21.511Z,83.48
2022-10-28T20:34:23.277Z,83.60
2022-10-28T20:35:27.076Z,83.59
2022-10-28T20:36:37.991Z,83.59
2022-10-28T20:37:43.166Z,83.61
2022-10-28T20:38:48.134Z,83.39
2022-10-28T20:39:54.937Z,83.86
2022-10-28T20:41:04.547Z,84.76
2022-10-28T20:42:07.089Z,84.06
2022-10-28T20:43:16.465Z,83.31
2022-10-28T20:44:18.812Z,85.45
2022-10-28T20:45:22.560Z,83.51
2022-10-28T20:46:25.909Z,83.58
2022-10-28T20:47:28.918Z,84.13
2022-10-28T20:48:30.951Z,83.46
2022-10-28T20:49:32.595Z,82.43
2022-10-28T20:50:34.418Z,83.47
2022-10-28T20:51:36.291Z,83.66
2022-10-28T20:52:41.895Z,84.49